sensor_id;sensor_type;location;lat;lon;timestamp;pressure;altitude;pressure_sealevel;temperature;humidity
55664;BME280;41540;57.880;12.164;2022-10-23T00:05:43;99586.75;;;7.87;100.00
55664;BME280;41540;57.880;12.164;2022-10-23T00:15:44;99643.88;;;8.17;100.00
55664;BME280;41540;57.880;12.164;2022-10-23T00:25:44;99650.00;;;8.24;100.00
55664;BME280;41540;57.880;12.164;2022-10-23T00:35:44;99543.41;;;7.59;100.00
55664;BME280;41540;57.880;12.164;2022-10-23T00:45:45;99474.16;;;7.18;100.00
55664;BME280;41540;57.880;12.164;2022-10-23T00:55:47;99623.31;;;8.24;100.00
55664;BME280;41540;57.880;12.164;2022-10-23T01:05:53;99650.19;;;8.41;100.00
55664;BME280;41540;57.880;12.164;2022-10-23T01:16:19;99606.13;;;8.23;100.00
55664;BME280;41540;57.880;12.164;2022-10-23T01:26:50;99610.53;;;8.34;100.00
55664;BME280;41540;57.880;12.164;2022-10-23T01:36:56;99588.16;;;8.32;100.00
55664;BME280;41540;57.880;12.164;2022-10-23T01:46:58;99595.19;;;8.44;100.00
55664;BME280;41540;57.880;12.164;2022-10-23T01:57:01;99486.31;;;7.99;100.00
55664;BME280;41540;57.880;12.164;2022-10-23T02:07:02;99604.91;;;8.66;100.00
55664;BME280;41540;57.880;12.164;2022-10-23T02:18:07;99575.59;;;8.66;100.00
55664;BME280;41540;57.880;12.164;2022-10-23T02:27:49;99529.00;;;8.49;100.00
55664;BME280;41540;57.880;12.164;2022-10-23T02:37:56;99460.72;;;8.17;100.00
55664;BME280;41540;57.880;12.164;2022-10-23T02:48:15;99522.22;;;8.58;100.00
55664;BME280;41540;57.880;12.164;2022-10-23T03:08:40;99530.97;;;8.76;100.00
55664;BME280;41540;57.880;12.164;2022-10-23T03:18:41;99524.97;;;8.82;100.00
55664;BME280;41540;57.880;12.164;2022-10-23T03:28:41;99522.41;;;8.86;100.00
55664;BME280;41540;57.880;12.164;2022-10-23T03:38:42;99496.56;;;8.82;100.00
55664;BME280;41540;57.880;12.164;2022-10-23T03:48:42;99475.06;;;8.81;100.00
55664;BME280;41540;57.880;12.164;2022-10-23T03:58:42;99496.72;;;9.00;100.00
55664;BME280;41540;57.880;12.164;2022-10-23T04:08:43;99404.28;;;8.53;100.00
55664;BME280;41540;57.880;12.164;2022-10-23T04:18:44;99535.66;;;9.26;100.00
55664;BME280;41540;57.880;12.164;2022-10-23T04:28:44;99534.72;;;9.20;100.00
55664;BME280;41540;57.880;12.164;2022-10-23T04:38:44;99524.44;;;9.27;100.00
55664;BME280;41540;57.880;12.164;2022-10-23T04:48:45;99511.41;;;9.09;100.00
55664;BME280;41540;57.880;12.164;2022-10-23T04:58:45;99437.94;;;8.67;100.00
55664;BME280;41540;57.880;12.164;2022-10-23T05:08:46;99495.91;;;9.10;100.00
55664;BME280;41540;57.880;12.164;2022-10-23T05:18:47;99398.25;;;8.55;100.00
55664;BME280;41540;57.880;12.164;2022-10-23T05:28:48;99495.16;;;9.27;100.00
55664;BME280;41540;57.880;12.164;2022-10-23T05:38:48;99537.56;;;9.60;100.00
55664;BME280;41540;57.880;12.164;2022-10-23T05:48:50;99398.44;;;8.82;100.00
55664;BME280;41540;57.880;12.164;2022-10-23T05:58:50;99531.59;;;9.76;100.00
55664;BME280;41540;57.880;12.164;2022-10-23T06:08:51;99495.41;;;9.84;100.00
55664;BME280;41540;57.880;12.164;2022-10-23T06:18:52;99381.34;;;9.05;100.00
55664;BME280;41540;57.880;12.164;2022-10-23T06:28:52;99517.09;;;10.26;100.00
55664;BME280;41540;57.880;12.164;2022-10-23T06:38:52;99537.03;;;10.54;100.00
55664;BME280;41540;57.880;12.164;2022-10-23T06:48:55;99542.22;;;10.58;100.00
55664;BME280;41540;57.880;12.164;2022-10-23T06:58:55;99480.03;;;10.39;100.00
55664;BME280;41540;57.880;12.164;2022-10-23T07:08:58;99551.72;;;10.86;100.00
55664;BME280;41540;57.880;12.164;2022-10-23T07:18:59;99469.69;;;10.42;100.00
55664;BME280;41540;57.880;12.164;2022-10-23T07:29:00;99396.31;;;10.08;100.00
55664;BME280;41540;57.880;12.164;2022-10-23T07:39:00;99556.06;;;11.00;100.00
55664;BME280;41540;57.880;12.164;2022-10-23T07:49:01;99464.50;;;10.82;100.00
55664;BME280;41540;57.880;12.164;2022-10-23T07:59:01;99557.72;;;11.50;100.00
55664;BME280;41540;57.880;12.164;2022-10-23T08:09:02;99512.84;;;11.20;100.00
55664;BME280;41540;57.880;12.164;2022-10-23T08:19:03;99285.91;;;9.78;100.00
55664;BME280;41540;57.880;12.164;2022-10-23T08:29:06;99533.41;;;11.86;100.00
55664;BME280;41540;57.880;12.164;2022-10-23T08:39:07;99558.53;;;11.67;100.00
55664;BME280;41540;57.880;12.164;2022-10-23T08:49:32;99520.56;;;11.45;100.00
55664;BME280;41540;57.880;12.164;2022-10-23T08:59:37;99531.81;;;11.28;100.00
55664;BME280;41540;57.880;12.164;2022-10-23T09:30:38;99587.13;;;11.54;100.00
55664;BME280;41540;57.880;12.164;2022-10-23T09:40:42;99633.81;;;11.52;100.00
55664;BME280;41540;57.880;12.164;2022-10-23T10:01:23;99755.72;;;12.31;100.00
55664;BME280;41540;57.880;12.164;2022-10-23T10:11:29;99702.09;;;11.76;100.00
55664;BME280;41540;57.880;12.164;2022-10-23T10:21:43;99772.16;;;12.17;100.00
55664;BME280;41540;57.880;12.164;2022-10-23T11:02:26;99807.66;;;12.18;100.00
55664;BME280;41540;57.880;12.164;2022-10-23T11:12:27;99826.69;;;12.26;100.00
55664;BME280;41540;57.880;12.164;2022-10-23T11:22:45;99813.72;;;12.08;100.00
55664;BME280;41540;57.880;12.164;2022-10-23T11:43:30;99828.38;;;12.40;100.00
55664;BME280;41540;57.880;12.164;2022-10-23T12:03:46;99819.75;;;11.82;100.00
55664;BME280;41540;57.880;12.164;2022-10-23T12:13:48;99788.56;;;11.56;100.00
55664;BME280;41540;57.880;12.164;2022-10-23T12:44:28;99674.41;;;10.85;100.00
55664;BME280;41540;57.880;12.164;2022-10-23T12:54:31;99695.13;;;10.98;100.00
55664;BME280;41540;57.880;12.164;2022-10-23T13:04:34;99759.16;;;11.31;100.00
55664;BME280;41540;57.880;12.164;2022-10-23T13:14:41;99734.94;;;11.21;100.00
55664;BME280;41540;57.880;12.164;2022-10-23T13:25:00;99721.13;;;11.31;100.00
55664;BME280;41540;57.880;12.164;2022-10-23T13:46:22;99729.78;;;11.60;100.00
55664;BME280;41540;57.880;12.164;2022-10-23T13:57:05;99742.75;;;11.64;100.00
55664;BME280;41540;57.880;12.164;2022-10-23T14:07:10;99760.88;;;11.41;100.00
55664;BME280;41540;57.880;12.164;2022-10-23T14:17:11;99714.19;;;11.21;100.00
55664;BME280;41540;57.880;12.164;2022-10-23T14:27:11;99631.16;;;10.55;100.00
55664;BME280;41540;57.880;12.164;2022-10-23T14:37:11;99708.06;;;10.85;100.00
55664;BME280;41540;57.880;12.164;2022-10-23T14:47:12;99712.41;;;10.97;100.00
55664;BME280;41540;57.880;12.164;2022-10-23T14:57:12;99640.63;;;10.45;100.00
55664;BME280;41540;57.880;12.164;2022-10-23T15:07:15;99672.59;;;10.61;100.00
55664;BME280;41540;57.880;12.164;2022-10-23T15:17:16;99654.41;;;10.50;100.00
55664;BME280;41540;57.880;12.164;2022-10-23T15:27:17;99609.44;;;10.28;100.00
55664;BME280;41540;57.880;12.164;2022-10-23T15:37:18;99609.50;;;10.33;100.00
55664;BME280;41540;57.880;12.164;2022-10-23T15:47:18;99623.25;;;10.29;100.00
55664;BME280;41540;57.880;12.164;2022-10-23T15:57:18;99650.88;;;10.28;100.00
55664;BME280;41540;57.880;12.164;2022-10-23T16:07:18;99696.75;;;10.56;100.00
55664;BME280;41540;57.880;12.164;2022-10-23T16:17:19;99613.69;;;10.08;100.00
55664;BME280;41540;57.880;12.164;2022-10-23T16:27:19;99688.06;;;10.44;100.00
55664;BME280;41540;57.880;12.164;2022-10-23T16:37:20;99586.84;;;9.89;100.00
55664;BME280;41540;57.880;12.164;2022-10-23T16:47:20;99650.84;;;10.27;100.00
55664;BME280;41540;57.880;12.164;2022-10-23T16:57:20;99686.38;;;10.51;100.00
55664;BME280;41540;57.880;12.164;2022-10-23T17:07:20;99669.91;;;10.41;100.00
55664;BME280;41540;57.880;12.164;2022-10-23T17:17:22;99668.19;;;10.37;100.00
55664;BME280;41540;57.880;12.164;2022-10-23T17:27:23;99629.22;;;10.08;100.00
55664;BME280;41540;57.880;12.164;2022-10-23T17:37:23;99665.56;;;10.31;100.00
55664;BME280;41540;57.880;12.164;2022-10-23T17:47:23;99681.97;;;10.38;100.00
55664;BME280;41540;57.880;12.164;2022-10-23T17:57:24;99641.28;;;10.09;100.00
55664;BME280;41540;57.880;12.164;2022-10-23T18:07:24;99606.72;;;9.94;100.00
55664;BME280;41540;57.880;12.164;2022-10-23T18:17:25;99641.28;;;10.06;100.00
55664;BME280;41540;57.880;12.164;2022-10-23T18:27:25;99676.81;;;10.38;100.00
55664;BME280;41540;57.880;12.164;2022-10-23T18:37:26;99662.94;;;10.29;100.00
55664;BME280;41540;57.880;12.164;2022-10-23T18:47:26;99636.13;;;10.18;100.00
55664;BME280;41540;57.880;12.164;2022-10-23T18:57:27;99634.44;;;10.22;100.00
55664;BME280;41540;57.880;12.164;2022-10-23T19:07:27;99637.03;;;10.28;100.00
55664;BME280;41540;57.880;12.164;2022-10-23T19:17:30;99650.84;;;10.30;100.00
55664;BME280;41540;57.880;12.164;2022-10-23T19:27:31;99654.28;;;10.24;100.00
55664;BME280;41540;57.880;12.164;2022-10-23T19:37:32;99632.66;;;10.13;100.00
55664;BME280;41540;57.880;12.164;2022-10-23T19:47:32;99547.88;;;9.58;100.00
55664;BME280;41540;57.880;12.164;2022-10-23T19:57:33;99625.69;;;10.00;100.00
55664;BME280;41540;57.880;12.164;2022-10-23T20:07:33;99620.50;;;9.95;100.00
55664;BME280;41540;57.880;12.164;2022-10-23T20:17:35;99618.72;;;9.86;100.00
55664;BME280;41540;57.880;12.164;2022-10-23T20:27:35;99615.22;;;9.72;100.00
55664;BME280;41540;57.880;12.164;2022-10-23T20:37:36;99542.66;;;9.50;100.00
55664;BME280;41540;57.880;12.164;2022-10-23T20:47:36;99595.44;;;9.86;100.00
55664;BME280;41540;57.880;12.164;2022-10-23T20:57:37;99573.81;;;9.69;100.00
55664;BME280;41540;57.880;12.164;2022-10-23T21:07:37;99591.97;;;9.73;100.00
55664;BME280;41540;57.880;12.164;2022-10-23T21:17:37;99581.50;;;9.55;100.00
55664;BME280;41540;57.880;12.164;2022-10-23T21:27:39;99579.63;;;9.34;100.00
55664;BME280;41540;57.880;12.164;2022-10-23T21:37:40;99544.06;;;8.99;100.00
55664;BME280;41540;57.880;12.164;2022-10-23T21:47:40;99463.72;;;8.64;100.00
55664;BME280;41540;57.880;12.164;2022-10-23T21:57:40;99583.88;;;9.26;100.00
55664;BME280;41540;57.880;12.164;2022-10-23T22:07:45;99538.84;;;8.93;100.00
55664;BME280;41540;57.880;12.164;2022-10-23T22:17:46;99524.09;;;8.78;100.00
55664;BME280;41540;57.880;12.164;2022-10-23T22:27:46;99554.38;;;8.97;100.00
55664;BME280;41540;57.880;12.164;2022-10-23T22:37:47;99543.94;;;8.84;100.00
55664;BME280;41540;57.880;12.164;2022-10-23T22:47:47;99587.88;;;8.88;100.00
55664;BME280;41540;57.880;12.164;2022-10-23T22:57:48;99598.19;;;8.84;100.00
55664;BME280;41540;57.880;12.164;2022-10-23T23:07:48;99554.06;;;8.64;100.00
55664;BME280;41540;57.880;12.164;2022-10-23T23:17:48;99530.84;;;8.64;100.00
55664;BME280;41540;57.880;12.164;2022-10-23T23:27:49;99459.03;;;8.21;100.00
55664;BME280;41540;57.880;12.164;2022-10-23T23:37:49;99558.41;;;8.66;100.00
55664;BME280;41540;57.880;12.164;2022-10-23T23:47:49;99585.16;;;8.74;100.00
55664;BME280;41540;57.880;12.164;2022-10-23T23:57:50;99511.66;;;8.40;100.00
